sensor_id;sensor_type;location;lat;lon;timestamp;P1;durP1;ratioP1;P2;durP2;ratioP2
13592;SDS011;6867;50.998;4.250;2022-07-29T00:00:48;1.58;;;1.10;;
13592;SDS011;6867;50.998;4.250;2022-07-29T00:03:15;3.03;;;1.63;;
13592;SDS011;6867;50.998;4.250;2022-07-29T00:05:42;1.40;;;1.25;;
13592;SDS011;6867;50.998;4.250;2022-07-29T00:08:08;2.40;;;1.20;;
13592;SDS011;6867;50.998;4.250;2022-07-29T00:10:35;3.13;;;1.45;;
13592;SDS011;6867;50.998;4.250;2022-07-29T00:13:03;2.55;;;1.45;;
13592;SDS011;6867;50.998;4.250;2022-07-29T00:15:30;2.83;;;1.65;;
13592;SDS011;6867;50.998;4.250;2022-07-29T00:17:57;2.55;;;1.42;;
13592;SDS011;6867;50.998;4.250;2022-07-29T00:20:23;4.18;;;1.67;;
13592;SDS011;6867;50.998;4.250;2022-07-29T00:22:50;2.35;;;1.50;;
13592;SDS011;6867;50.998;4.250;2022-07-29T00:25:17;1.60;;;1.23;;
13592;SDS011;6867;50.998;4.250;2022-07-29T00:27:43;2.67;;;1.73;;
13592;SDS011;6867;50.998;4.250;2022-07-29T00:30:12;2.28;;;1.27;;
13592;SDS011;6867;50.998;4.250;2022-07-29T00:32:39;2.55;;;1.33;;
13592;SDS011;6867;50.998;4.250;2022-07-29T00:35:06;2.88;;;1.40;;
13592;SDS011;6867;50.998;4.250;2022-07-29T00:37:52;3.72;;;1.45;;
13592;SDS011;6867;50.998;4.250;2022-07-29T00:40:18;2.67;;;1.83;;
13592;SDS011;6867;50.998;4.250;2022-07-29T00:42:46;2.97;;;1.52;;
13592;SDS011;6867;50.998;4.250;2022-07-29T00:45:15;2.38;;;1.33;;
13592;SDS011;6867;50.998;4.250;2022-07-29T00:47:43;3.88;;;1.48;;
13592;SDS011;6867;50.998;4.250;2022-07-29T00:50:10;3.17;;;1.60;;
13592;SDS011;6867;50.998;4.250;2022-07-29T00:52:39;2.22;;;1.48;;
13592;SDS011;6867;50.998;4.250;2022-07-29T00:55:08;5.15;;;1.40;;
13592;SDS011;6867;50.998;4.250;2022-07-29T00:57:36;3.88;;;1.50;;
13592;SDS011;6867;50.998;4.250;2022-07-29T01:00:03;2.53;;;1.48;;
13592;SDS011;6867;50.998;4.250;2022-07-29T01:02:33;1.40;;;1.30;;
13592;SDS011;6867;50.998;4.250;2022-07-29T01:04:59;2.60;;;1.65;;
13592;SDS011;6867;50.998;4.250;2022-07-29T01:07:26;3.97;;;1.33;;
13592;SDS011;6867;50.998;4.250;2022-07-29T01:09:54;2.72;;;1.40;;
13592;SDS011;6867;50.998;4.250;2022-07-29T01:12:23;2.33;;;1.25;;
13592;SDS011;6867;50.998;4.250;2022-07-29T01:14:52;2.13;;;1.58;;
13592;SDS011;6867;50.998;4.250;2022-07-29T01:17:21;3.42;;;1.77;;
13592;SDS011;6867;50.998;4.250;2022-07-29T01:19:56;4.53;;;1.63;;
13592;SDS011;6867;50.998;4.250;2022-07-29T01:22:31;3.85;;;1.67;;
13592;SDS011;6867;50.998;4.250;2022-07-29T01:25:09;4.00;;;1.58;;
13592;SDS011;6867;50.998;4.250;2022-07-29T01:27:47;4.18;;;1.80;;
13592;SDS011;6867;50.998;4.250;2022-07-29T01:30:28;3.92;;;1.77;;
13592;SDS011;6867;50.998;4.250;2022-07-29T01:32:59;4.10;;;1.60;;
13592;SDS011;6867;50.998;4.250;2022-07-29T01:35:30;1.80;;;1.30;;
13592;SDS011;6867;50.998;4.250;2022-07-29T01:38:03;2.50;;;1.45;;
13592;SDS011;6867;50.998;4.250;2022-07-29T01:40:35;1.58;;;1.48;;
13592;SDS011;6867;50.998;4.250;2022-07-29T01:43:09;3.83;;;1.58;;
13592;SDS011;6867;50.998;4.250;2022-07-29T01:45:40;1.63;;;1.20;;
13592;SDS011;6867;50.998;4.250;2022-07-29T01:48:10;2.55;;;1.73;;
13592;SDS011;6867;50.998;4.250;2022-07-29T01:50:45;2.47;;;1.60;;
13592;SDS011;6867;50.998;4.250;2022-07-29T01:53:15;2.67;;;1.90;;
13592;SDS011;6867;50.998;4.250;2022-07-29T01:55:48;3.22;;;1.52;;
13592;SDS011;6867;50.998;4.250;2022-07-29T01:58:15;2.00;;;1.80;;
13592;SDS011;6867;50.998;4.250;2022-07-29T02:00:46;2.70;;;2.13;;
13592;SDS011;6867;50.998;4.250;2022-07-29T02:03:14;4.68;;;2.13;;
13592;SDS011;6867;50.998;4.250;2022-07-29T02:05:43;2.67;;;2.10;;
13592;SDS011;6867;50.998;4.250;2022-07-29T02:08:13;2.95;;;1.95;;
13592;SDS011;6867;50.998;4.250;2022-07-29T02:10:41;2.92;;;1.73;;
13592;SDS011;6867;50.998;4.250;2022-07-29T02:13:10;4.07;;;2.08;;
13592;SDS011;6867;50.998;4.250;2022-07-29T02:15:38;5.38;;;2.05;;
13592;SDS011;6867;50.998;4.250;2022-07-29T02:18:11;2.17;;;1.90;;
13592;SDS011;6867;50.998;4.250;2022-07-29T02:20:42;2.70;;;1.80;;
13592;SDS011;6867;50.998;4.250;2022-07-29T02:23:12;3.67;;;2.05;;
13592;SDS011;6867;50.998;4.250;2022-07-29T02:25:44;2.90;;;2.00;;
13592;SDS011;6867;50.998;4.250;2022-07-29T02:28:14;2.35;;;1.95;;
13592;SDS011;6867;50.998;4.250;2022-07-29T02:30:42;4.22;;;2.08;;
13592;SDS011;6867;50.998;4.250;2022-07-29T02:33:12;2.90;;;2.22;;
13592;SDS011;6867;50.998;4.250;2022-07-29T02:35:40;2.92;;;2.55;;
13592;SDS011;6867;50.998;4.250;2022-07-29T02:38:10;3.70;;;1.80;;
13592;SDS011;6867;50.998;4.250;2022-07-29T02:40:57;3.20;;;1.95;;
13592;SDS011;6867;50.998;4.250;2022-07-29T02:43:26;3.58;;;2.10;;
13592;SDS011;6867;50.998;4.250;2022-07-29T02:45:54;4.57;;;2.65;;
13592;SDS011;6867;50.998;4.250;2022-07-29T02:48:26;8.55;;;2.33;;
13592;SDS011;6867;50.998;4.250;2022-07-29T02:50:58;2.40;;;2.17;;
13592;SDS011;6867;50.998;4.250;2022-07-29T02:53:31;2.30;;;1.73;;
13592;SDS011;6867;50.998;4.250;2022-07-29T02:56:01;2.13;;;1.92;;
13592;SDS011;6867;50.998;4.250;2022-07-29T02:58:34;3.65;;;2.28;;
13592;SDS011;6867;50.998;4.250;2022-07-29T03:01:08;3.33;;;2.30;;
13592;SDS011;6867;50.998;4.250;2022-07-29T03:03:41;3.17;;;2.88;;
13592;SDS011;6867;50.998;4.250;2022-07-29T03:06:11;4.43;;;2.22;;
13592;SDS011;6867;50.998;4.250;2022-07-29T03:08:39;2.25;;;2.00;;
13592;SDS011;6867;50.998;4.250;2022-07-29T03:11:07;3.40;;;2.28;;
13592;SDS011;6867;50.998;4.250;2022-07-29T03:13:35;2.75;;;2.13;;
13592;SDS011;6867;50.998;4.250;2022-07-29T03:16:03;5.13;;;2.45;;
13592;SDS011;6867;50.998;4.250;2022-07-29T03:18:31;5.97;;;2.45;;
13592;SDS011;6867;50.998;4.250;2022-07-29T03:21:00;2.97;;;2.47;;
13592;SDS011;6867;50.998;4.250;2022-07-29T03:23:26;3.03;;;2.22;;
13592;SDS011;6867;50.998;4.250;2022-07-29T03:25:53;3.50;;;2.08;;
13592;SDS011;6867;50.998;4.250;2022-07-29T03:28:20;3.97;;;2.40;;
13592;SDS011;6867;50.998;4.250;2022-07-29T03:30:47;2.75;;;2.33;;
13592;SDS011;6867;50.998;4.250;2022-07-29T03:33:15;4.47;;;2.47;;
13592;SDS011;6867;50.998;4.250;2022-07-29T03:35:42;2.58;;;2.38;;
13592;SDS011;6867;50.998;4.250;2022-07-29T03:38:10;3.13;;;2.28;;
13592;SDS011;6867;50.998;4.250;2022-07-29T03:40:38;4.53;;;2.60;;
13592;SDS011;6867;50.998;4.250;2022-07-29T03:43:11;2.47;;;2.25;;
13592;SDS011;6867;50.998;4.250;2022-07-29T03:45:40;4.30;;;2.30;;
13592;SDS011;6867;50.998;4.250;2022-07-29T03:48:11;4.10;;;2.42;;
13592;SDS011;6867;50.998;4.250;2022-07-29T03:50:42;7.82;;;2.58;;
13592;SDS011;6867;50.998;4.250;2022-07-29T03:53:10;4.13;;;2.25;;
13592;SDS011;6867;50.998;4.250;2022-07-29T03:55:40;3.63;;;2.45;;
13592;SDS011;6867;50.998;4.250;2022-07-29T03:58:09;2.70;;;2.33;;
13592;SDS011;6867;50.998;4.250;2022-07-29T04:00:37;3.55;;;2.35;;
13592;SDS011;6867;50.998;4.250;2022-07-29T04:03:04;3.88;;;2.88;;
13592;SDS011;6867;50.998;4.250;2022-07-29T04:05:32;2.67;;;2.25;;
13592;SDS011;6867;50.998;4.250;2022-07-29T04:07:58;2.85;;;2.38;;
13592;SDS011;6867;50.998;4.250;2022-07-29T04:10:27;5.15;;;2.88;;
13592;SDS011;6867;50.998;4.250;2022-07-29T04:12:53;3.30;;;2.42;;
13592;SDS011;6867;50.998;4.250;2022-07-29T04:15:20;3.63;;;2.83;;
13592;SDS011;6867;50.998;4.250;2022-07-29T04:17:47;3.17;;;2.50;;
13592;SDS011;6867;50.998;4.250;2022-07-29T04:20:13;4.43;;;2.67;;
13592;SDS011;6867;50.998;4.250;2022-07-29T04:22:40;4.88;;;2.55;;
13592;SDS011;6867;50.998;4.250;2022-07-29T04:25:07;5.22;;;2.78;;
13592;SDS011;6867;50.998;4.250;2022-07-29T04:27:38;4.53;;;2.75;;
13592;SDS011;6867;50.998;4.250;2022-07-29T04:30:25;5.38;;;2.75;;
13592;SDS011;6867;50.998;4.250;2022-07-29T04:32:52;4.00;;;2.38;;
13592;SDS011;6867;50.998;4.250;2022-07-29T04:35:18;5.60;;;2.90;;
13592;SDS011;6867;50.998;4.250;2022-07-29T04:37:45;4.03;;;2.95;;
13592;SDS011;6867;50.998;4.250;2022-07-29T04:40:12;4.05;;;2.70;;
13592;SDS011;6867;50.998;4.250;2022-07-29T04:42:40;5.30;;;3.30;;
13592;SDS011;6867;50.998;4.250;2022-07-29T04:45:07;5.10;;;2.90;;
13592;SDS011;6867;50.998;4.250;2022-07-29T04:47:34;4.22;;;2.80;;
13592;SDS011;6867;50.998;4.250;2022-07-29T04:50:01;4.75;;;3.50;;
13592;SDS011;6867;50.998;4.250;2022-07-29T04:52:27;5.93;;;3.42;;
13592;SDS011;6867;50.998;4.250;2022-07-29T04:54:54;4.38;;;3.00;;
13592;SDS011;6867;50.998;4.250;2022-07-29T04:57:21;4.70;;;3.13;;
13592;SDS011;6867;50.998;4.250;2022-07-29T04:59:49;5.50;;;3.22;;
13592;SDS011;6867;50.998;4.250;2022-07-29T05:02:16;4.93;;;2.90;;
13592;SDS011;6867;50.998;4.250;2022-07-29T05:04:43;4.05;;;2.53;;
13592;SDS011;6867;50.998;4.250;2022-07-29T05:07:10;6.20;;;3.00;;
13592;SDS011;6867;50.998;4.250;2022-07-29T05:09:36;4.72;;;3.13;;
13592;SDS011;6867;50.998;4.250;2022-07-29T05:12:03;5.35;;;3.03;;
13592;SDS011;6867;50.998;4.250;2022-07-29T05:14:30;5.70;;;3.20;;
13592;SDS011;6867;50.998;4.250;2022-07-29T05:16:58;4.00;;;3.00;;
13592;SDS011;6867;50.998;4.250;2022-07-29T05:19:25;3.55;;;2.38;;
13592;SDS011;6867;50.998;4.250;2022-07-29T05:21:52;4.90;;;2.67;;
13592;SDS011;6867;50.998;4.250;2022-07-29T05:24:18;4.93;;;2.55;;
13592;SDS011;6867;50.998;4.250;2022-07-29T05:26:45;4.88;;;3.15;;
13592;SDS011;6867;50.998;4.250;2022-07-29T05:29:12;3.88;;;2.90;;
13592;SDS011;6867;50.998;4.250;2022-07-29T05:31:39;3.55;;;3.10;;
13592;SDS011;6867;50.998;4.250;2022-07-29T05:34:07;4.35;;;3.42;;
13592;SDS011;6867;50.998;4.250;2022-07-29T05:36:34;5.65;;;3.00;;
13592;SDS011;6867;50.998;4.250;2022-07-29T05:39:01;3.92;;;3.00;;
13592;SDS011;6867;50.998;4.250;2022-07-29T05:41:27;3.85;;;3.05;;
13592;SDS011;6867;50.998;4.250;2022-07-29T05:43:57;5.32;;;3.17;;
13592;SDS011;6867;50.998;4.250;2022-07-29T05:46:24;4.32;;;3.13;;
13592;SDS011;6867;50.998;4.250;2022-07-29T05:48:51;5.07;;;3.78;;
13592;SDS011;6867;50.998;4.250;2022-07-29T05:51:19;3.72;;;3.03;;
13592;SDS011;6867;50.998;4.250;2022-07-29T05:53:46;3.58;;;2.78;;
13592;SDS011;6867;50.998;4.250;2022-07-29T05:56:12;2.85;;;2.50;;
13592;SDS011;6867;50.998;4.250;2022-07-29T05:58:39;4.70;;;2.85;;
13592;SDS011;6867;50.998;4.250;2022-07-29T06:01:06;4.55;;;2.80;;
13592;SDS011;6867;50.998;4.250;2022-07-29T06:03:33;3.13;;;2.80;;
13592;SDS011;6867;50.998;4.250;2022-07-29T06:06:00;4.13;;;2.85;;
13592;SDS011;6867;50.998;4.250;2022-07-29T06:08:28;7.93;;;3.20;;
13592;SDS011;6867;50.998;4.250;2022-07-29T06:10:54;3.05;;;2.75;;
13592;SDS011;6867;50.998;4.250;2022-07-29T06:13:21;10.40;;;5.18;;
13592;SDS011;6867;50.998;4.250;2022-07-29T06:15:48;5.80;;;3.33;;
13592;SDS011;6867;50.998;4.250;2022-07-29T06:18:14;3.28;;;2.88;;
13592;SDS011;6867;50.998;4.250;2022-07-29T06:20:41;3.67;;;2.63;;
13592;SDS011;6867;50.998;4.250;2022-07-29T06:23:08;4.18;;;2.70;;
13592;SDS011;6867;50.998;4.250;2022-07-29T06:25:36;3.40;;;3.00;;
13592;SDS011;6867;50.998;4.250;2022-07-29T06:28:04;3.15;;;2.75;;
13592;SDS011;6867;50.998;4.250;2022-07-29T06:30:31;4.47;;;2.75;;
13592;SDS011;6867;50.998;4.250;2022-07-29T06:32:58;6.40;;;3.00;;
13592;SDS011;6867;50.998;4.250;2022-07-29T06:35:25;4.38;;;2.47;;
13592;SDS011;6867;50.998;4.250;2022-07-29T06:37:52;13.35;;;3.33;;
13592;SDS011;6867;50.998;4.250;2022-07-29T06:40:18;4.18;;;3.25;;
13592;SDS011;6867;50.998;4.250;2022-07-29T06:43:13;3.40;;;2.80;;
13592;SDS011;6867;50.998;4.250;2022-07-29T06:45:40;5.60;;;3.15;;
13592;SDS011;6867;50.998;4.250;2022-07-29T06:48:07;3.28;;;2.80;;
13592;SDS011;6867;50.998;4.250;2022-07-29T06:50:34;7.28;;;3.33;;
13592;SDS011;6867;50.998;4.250;2022-07-29T06:53:01;6.65;;;3.17;;
13592;SDS011;6867;50.998;4.250;2022-07-29T06:55:28;3.00;;;2.70;;
13592;SDS011;6867;50.998;4.250;2022-07-29T06:57:55;3.80;;;2.55;;
13592;SDS011;6867;50.998;4.250;2022-07-29T07:00:23;3.72;;;2.80;;
13592;SDS011;6867;50.998;4.250;2022-07-29T07:02:49;3.13;;;2.83;;
13592;SDS011;6867;50.998;4.250;2022-07-29T07:05:16;3.35;;;2.95;;
13592;SDS011;6867;50.998;4.250;2022-07-29T07:07:43;3.10;;;2.47;;
13592;SDS011;6867;50.998;4.250;2022-07-29T07:10:10;6.28;;;2.78;;
13592;SDS011;6867;50.998;4.250;2022-07-29T07:12:36;3.92;;;2.40;;
13592;SDS011;6867;50.998;4.250;2022-07-29T07:15:03;4.90;;;2.88;;
13592;SDS011;6867;50.998;4.250;2022-07-29T07:17:32;5.22;;;3.20;;
13592;SDS011;6867;50.998;4.250;2022-07-29T07:19:59;5.70;;;2.60;;
13592;SDS011;6867;50.998;4.250;2022-07-29T07:22:25;3.55;;;2.75;;
13592;SDS011;6867;50.998;4.250;2022-07-29T07:24:52;4.22;;;2.97;;
13592;SDS011;6867;50.998;4.250;2022-07-29T07:27:19;3.75;;;2.70;;
13592;SDS011;6867;50.998;4.250;2022-07-29T07:29:46;4.22;;;2.90;;
13592;SDS011;6867;50.998;4.250;2022-07-29T07:32:12;3.90;;;2.58;;
13592;SDS011;6867;50.998;4.250;2022-07-29T07:34:42;4.25;;;3.22;;
13592;SDS011;6867;50.998;4.250;2022-07-29T07:37:09;4.20;;;2.42;;
13592;SDS011;6867;50.998;4.250;2022-07-29T07:39:36;3.88;;;3.03;;
13592;SDS011;6867;50.998;4.250;2022-07-29T07:42:03;4.28;;;2.67;;
13592;SDS011;6867;50.998;4.250;2022-07-29T07:44:30;4.05;;;3.40;;
13592;SDS011;6867;50.998;4.250;2022-07-29T07:46:56;2.88;;;2.58;;
13592;SDS011;6867;50.998;4.250;2022-07-29T07:49:23;4.22;;;3.35;;
13592;SDS011;6867;50.998;4.250;2022-07-29T07:51:51;4.75;;;3.10;;
13592;SDS011;6867;50.998;4.250;2022-07-29T07:54:18;4.82;;;3.80;;
13592;SDS011;6867;50.998;4.250;2022-07-29T07:56:45;3.85;;;3.22;;
13592;SDS011;6867;50.998;4.250;2022-07-29T07:59:13;4.35;;;3.22;;
13592;SDS011;6867;50.998;4.250;2022-07-29T08:01:40;4.40;;;2.97;;
13592;SDS011;6867;50.998;4.250;2022-07-29T08:04:07;4.22;;;3.17;;
13592;SDS011;6867;50.998;4.250;2022-07-29T08:06:34;4.35;;;3.08;;
13592;SDS011;6867;50.998;4.250;2022-07-29T08:09:03;4.60;;;3.05;;
13592;SDS011;6867;50.998;4.250;2022-07-29T08:11:30;4.85;;;3.22;;
13592;SDS011;6867;50.998;4.250;2022-07-29T08:13:57;6.68;;;3.53;;
13592;SDS011;6867;50.998;4.250;2022-07-29T08:16:23;3.75;;;2.88;;
13592;SDS011;6867;50.998;4.250;2022-07-29T08:18:51;3.53;;;2.70;;
13592;SDS011;6867;50.998;4.250;2022-07-29T08:21:22;2.75;;;2.55;;
13592;SDS011;6867;50.998;4.250;2022-07-29T08:23:50;4.00;;;3.08;;
13592;SDS011;6867;50.998;4.250;2022-07-29T08:26:19;4.03;;;2.20;;
13592;SDS011;6867;50.998;4.250;2022-07-29T08:28:47;4.88;;;2.58;;
13592;SDS011;6867;50.998;4.250;2022-07-29T08:31:16;2.83;;;2.40;;
13592;SDS011;6867;50.998;4.250;2022-07-29T08:33:43;4.90;;;2.72;;
13592;SDS011;6867;50.998;4.250;2022-07-29T08:36:10;3.85;;;3.55;;
13592;SDS011;6867;50.998;4.250;2022-07-29T08:38:38;5.82;;;3.20;;
13592;SDS011;6867;50.998;4.250;2022-07-29T08:41:04;4.30;;;3.42;;
13592;SDS011;6867;50.998;4.250;2022-07-29T08:43:33;3.42;;;3.05;;
13592;SDS011;6867;50.998;4.250;2022-07-29T08:46:02;3.70;;;3.00;;
13592;SDS011;6867;50.998;4.250;2022-07-29T08:48:29;6.28;;;3.38;;
13592;SDS011;6867;50.998;4.250;2022-07-29T08:50:56;4.75;;;3.17;;
13592;SDS011;6867;50.998;4.250;2022-07-29T08:53:24;6.20;;;3.50;;
13592;SDS011;6867;50.998;4.250;2022-07-29T08:55:52;3.83;;;3.50;;
13592;SDS011;6867;50.998;4.250;2022-07-29T08:58:19;4.60;;;3.15;;
13592;SDS011;6867;50.998;4.250;2022-07-29T09:00:49;4.00;;;3.20;;
13592;SDS011;6867;50.998;4.250;2022-07-29T09:03:18;5.65;;;3.08;;
13592;SDS011;6867;50.998;4.250;2022-07-29T09:05:47;4.78;;;2.78;;
13592;SDS011;6867;50.998;4.250;2022-07-29T09:08:15;6.18;;;3.28;;
13592;SDS011;6867;50.998;4.250;2022-07-29T09:10:43;4.78;;;2.78;;
13592;SDS011;6867;50.998;4.250;2022-07-29T09:13:10;5.80;;;3.35;;
13592;SDS011;6867;50.998;4.250;2022-07-29T09:15:37;5.40;;;3.60;;
13592;SDS011;6867;50.998;4.250;2022-07-29T09:18:05;5.50;;;3.40;;
13592;SDS011;6867;50.998;4.250;2022-07-29T09:20:32;5.10;;;3.83;;
13592;SDS011;6867;50.998;4.250;2022-07-29T09:23:13;4.07;;;3.55;;
13592;SDS011;6867;50.998;4.250;2022-07-29T09:25:40;5.47;;;4.65;;
13592;SDS011;6867;50.998;4.250;2022-07-29T09:28:07;8.65;;;5.32;;
13592;SDS011;6867;50.998;4.250;2022-07-29T09:30:35;7.30;;;4.47;;
13592;SDS011;6867;50.998;4.250;2022-07-29T09:33:17;4.63;;;4.18;;
13592;SDS011;6867;50.998;4.250;2022-07-29T09:35:44;5.07;;;4.22;;
13592;SDS011;6867;50.998;4.250;2022-07-29T09:38:10;6.10;;;4.47;;
13592;SDS011;6867;50.998;4.250;2022-07-29T09:40:38;6.40;;;4.30;;
13592;SDS011;6867;50.998;4.250;2022-07-29T09:43:11;5.38;;;4.40;;
13592;SDS011;6867;50.998;4.250;2022-07-29T09:45:39;6.88;;;3.80;;
13592;SDS011;6867;50.998;4.250;2022-07-29T09:48:17;4.22;;;3.33;;
13592;SDS011;6867;50.998;4.250;2022-07-29T09:50:45;5.90;;;3.67;;
13592;SDS011;6867;50.998;4.250;2022-07-29T09:53:29;8.07;;;3.47;;
13592;SDS011;6867;50.998;4.250;2022-07-29T09:55:57;5.05;;;3.13;;
13592;SDS011;6867;50.998;4.250;2022-07-29T09:58:23;3.97;;;2.95;;
13592;SDS011;6867;50.998;4.250;2022-07-29T10:00:51;5.47;;;3.20;;
13592;SDS011;6867;50.998;4.250;2022-07-29T10:03:21;4.05;;;3.05;;
13592;SDS011;6867;50.998;4.250;2022-07-29T10:06:03;3.30;;;3.00;;
13592;SDS011;6867;50.998;4.250;2022-07-29T10:08:31;5.40;;;3.50;;
13592;SDS011;6867;50.998;4.250;2022-07-29T10:11:08;3.35;;;3.03;;
13592;SDS011;6867;50.998;4.250;2022-07-29T10:13:36;5.75;;;3.33;;
13592;SDS011;6867;50.998;4.250;2022-07-29T10:16:04;3.60;;;2.90;;
13592;SDS011;6867;50.998;4.250;2022-07-29T10:18:34;5.00;;;2.78;;
13592;SDS011;6867;50.998;4.250;2022-07-29T10:21:03;5.35;;;3.10;;
13592;SDS011;6867;50.998;4.250;2022-07-29T10:23:30;4.22;;;2.92;;
13592;SDS011;6867;50.998;4.250;2022-07-29T10:25:57;8.60;;;3.63;;
13592;SDS011;6867;50.998;4.250;2022-07-29T10:28:24;5.00;;;2.50;;
13592;SDS011;6867;50.998;4.250;2022-07-29T10:30:51;4.70;;;2.40;;
13592;SDS011;6867;50.998;4.250;2022-07-29T10:33:29;3.83;;;2.33;;
13592;SDS011;6867;50.998;4.250;2022-07-29T10:36:15;3.33;;;2.42;;
13592;SDS011;6867;50.998;4.250;2022-07-29T10:38:52;7.75;;;2.85;;
13592;SDS011;6867;50.998;4.250;2022-07-29T10:41:48;6.97;;;3.70;;
13592;SDS011;6867;50.998;4.250;2022-07-29T10:44:22;7.57;;;2.90;;
13592;SDS011;6867;50.998;4.250;2022-07-29T10:46:52;3.40;;;2.70;;
13592;SDS011;6867;50.998;4.250;2022-07-29T10:49:21;4.90;;;2.40;;
13592;SDS011;6867;50.998;4.250;2022-07-29T10:51:57;4.88;;;2.78;;
13592;SDS011;6867;50.998;4.250;2022-07-29T10:54:38;4.55;;;3.00;;
13592;SDS011;6867;50.998;4.250;2022-07-29T10:57:17;3.83;;;3.15;;
13592;SDS011;6867;50.998;4.250;2022-07-29T10:59:51;3.78;;;2.88;;
13592;SDS011;6867;50.998;4.250;2022-07-29T11:02:54;2.97;;;2.65;;
13592;SDS011;6867;50.998;4.250;2022-07-29T11:05:24;6.85;;;3.58;;
13592;SDS011;6867;50.998;4.250;2022-07-29T11:10:45;3.78;;;3.15;;
13592;SDS011;6867;50.998;4.250;2022-07-29T11:13:12;3.47;;;2.40;;
13592;SDS011;6867;50.998;4.250;2022-07-29T11:18:20;4.93;;;2.55;;
13592;SDS011;6867;50.998;4.250;2022-07-29T11:20:49;4.32;;;2.50;;
13592;SDS011;6867;50.998;4.250;2022-07-29T11:23:25;6.38;;;2.70;;
13592;SDS011;6867;50.998;4.250;2022-07-29T11:28:59;4.35;;;2.80;;
13592;SDS011;6867;50.998;4.250;2022-07-29T11:31:33;5.57;;;3.03;;
13592;SDS011;6867;50.998;4.250;2022-07-29T11:34:20;7.03;;;2.67;;
13592;SDS011;6867;50.998;4.250;2022-07-29T11:42:45;5.38;;;2.42;;
13592;SDS011;6867;50.998;4.250;2022-07-29T11:45:20;5.18;;;2.60;;
13592;SDS011;6867;50.998;4.250;2022-07-29T11:47:55;4.50;;;2.40;;
13592;SDS011;6867;50.998;4.250;2022-07-29T11:50:28;3.42;;;2.60;;
13592;SDS011;6867;50.998;4.250;2022-07-29T11:52:59;4.88;;;2.55;;
13592;SDS011;6867;50.998;4.250;2022-07-29T11:55:28;3.97;;;2.30;;
13592;SDS011;6867;50.998;4.250;2022-07-29T11:57:57;5.13;;;2.58;;
13592;SDS011;6867;50.998;4.250;2022-07-29T12:00:27;4.22;;;2.17;;
13592;SDS011;6867;50.998;4.250;2022-07-29T12:02:56;5.72;;;2.70;;
13592;SDS011;6867;50.998;4.250;2022-07-29T12:05:31;2.92;;;2.03;;
13592;SDS011;6867;50.998;4.250;2022-07-29T12:08:07;3.83;;;2.40;;
13592;SDS011;6867;50.998;4.250;2022-07-29T12:10:40;6.20;;;2.80;;
13592;SDS011;6867;50.998;4.250;2022-07-29T12:13:07;5.57;;;2.50;;
13592;SDS011;6867;50.998;4.250;2022-07-29T12:15:34;5.60;;;2.33;;
13592;SDS011;6867;50.998;4.250;2022-07-29T12:18:13;4.70;;;2.10;;
13592;SDS011;6867;50.998;4.250;2022-07-29T12:20:43;4.40;;;2.05;;
13592;SDS011;6867;50.998;4.250;2022-07-29T12:23:11;5.55;;;2.30;;
13592;SDS011;6867;50.998;4.250;2022-07-29T12:25:39;4.85;;;1.98;;
13592;SDS011;6867;50.998;4.250;2022-07-29T12:28:09;5.22;;;2.33;;
13592;SDS011;6867;50.998;4.250;2022-07-29T12:30:41;4.82;;;2.47;;
13592;SDS011;6867;50.998;4.250;2022-07-29T12:33:13;2.65;;;2.22;;
13592;SDS011;6867;50.998;4.250;2022-07-29T12:35:42;6.80;;;1.85;;
13592;SDS011;6867;50.998;4.250;2022-07-29T12:38:12;3.90;;;2.20;;
13592;SDS011;6867;50.998;4.250;2022-07-29T12:40:39;2.00;;;1.80;;
13592;SDS011;6867;50.998;4.250;2022-07-29T12:43:07;4.68;;;1.63;;
13592;SDS011;6867;50.998;4.250;2022-07-29T12:45:35;3.35;;;2.25;;
13592;SDS011;6867;50.998;4.250;2022-07-29T12:48:03;3.83;;;2.00;;
13592;SDS011;6867;50.998;4.250;2022-07-29T12:50:30;5.30;;;2.13;;
13592;SDS011;6867;50.998;4.250;2022-07-29T12:53:07;3.65;;;2.10;;
13592;SDS011;6867;50.998;4.250;2022-07-29T12:55:39;5.90;;;1.90;;
13592;SDS011;6867;50.998;4.250;2022-07-29T12:58:07;2.95;;;2.13;;
13592;SDS011;6867;50.998;4.250;2022-07-29T13:00:35;3.00;;;1.77;;
13592;SDS011;6867;50.998;4.250;2022-07-29T13:03:01;3.13;;;1.67;;
13592;SDS011;6867;50.998;4.250;2022-07-29T13:08:13;2.58;;;2.00;;
13592;SDS011;6867;50.998;4.250;2022-07-29T13:10:42;4.97;;;1.70;;
13592;SDS011;6867;50.998;4.250;2022-07-29T13:13:09;2.72;;;1.85;;
13592;SDS011;6867;50.998;4.250;2022-07-29T13:15:39;5.30;;;2.50;;
13592;SDS011;6867;50.998;4.250;2022-07-29T13:20:55;2.33;;;2.00;;
13592;SDS011;6867;50.998;4.250;2022-07-29T13:23:23;2.20;;;1.65;;
13592;SDS011;6867;50.998;4.250;2022-07-29T13:25:51;4.88;;;2.03;;
13592;SDS011;6867;50.998;4.250;2022-07-29T13:28:17;2.20;;;2.00;;
13592;SDS011;6867;50.998;4.250;2022-07-29T13:30:46;2.90;;;2.00;;
13592;SDS011;6867;50.998;4.250;2022-07-29T13:33:13;3.90;;;1.75;;
13592;SDS011;6867;50.998;4.250;2022-07-29T13:35:40;4.55;;;1.90;;
13592;SDS011;6867;50.998;4.250;2022-07-29T13:38:07;2.75;;;1.52;;
13592;SDS011;6867;50.998;4.250;2022-07-29T13:40:34;3.95;;;2.95;;
13592;SDS011;6867;50.998;4.250;2022-07-29T13:43:02;5.57;;;1.98;;
13592;SDS011;6867;50.998;4.250;2022-07-29T13:45:28;3.03;;;2.22;;
13592;SDS011;6867;50.998;4.250;2022-07-29T13:47:55;3.63;;;1.98;;
13592;SDS011;6867;50.998;4.250;2022-07-29T13:50:22;4.03;;;1.90;;
13592;SDS011;6867;50.998;4.250;2022-07-29T13:52:48;4.43;;;2.10;;
13592;SDS011;6867;50.998;4.250;2022-07-29T13:55:16;4.70;;;2.08;;
13592;SDS011;6867;50.998;4.250;2022-07-29T13:57:42;2.28;;;1.60;;
13592;SDS011;6867;50.998;4.250;2022-07-29T14:00:11;3.80;;;2.35;;
13592;SDS011;6867;50.998;4.250;2022-07-29T14:02:38;4.10;;;2.20;;
13592;SDS011;6867;50.998;4.250;2022-07-29T14:05:05;3.17;;;2.38;;
13592;SDS011;6867;50.998;4.250;2022-07-29T14:07:34;3.72;;;2.20;;
13592;SDS011;6867;50.998;4.250;2022-07-29T14:10:01;7.80;;;2.63;;
13592;SDS011;6867;50.998;4.250;2022-07-29T14:12:29;4.13;;;2.30;;
13592;SDS011;6867;50.998;4.250;2022-07-29T14:14:55;4.00;;;2.33;;
13592;SDS011;6867;50.998;4.250;2022-07-29T14:17:23;3.88;;;2.60;;
13592;SDS011;6867;50.998;4.250;2022-07-29T14:19:50;4.53;;;2.67;;
13592;SDS011;6867;50.998;4.250;2022-07-29T14:22:17;5.43;;;2.70;;
13592;SDS011;6867;50.998;4.250;2022-07-29T14:24:44;3.28;;;2.47;;
13592;SDS011;6867;50.998;4.250;2022-07-29T14:27:18;5.60;;;2.70;;
13592;SDS011;6867;50.998;4.250;2022-07-29T14:29:47;5.28;;;2.50;;
13592;SDS011;6867;50.998;4.250;2022-07-29T14:32:14;3.63;;;2.42;;
13592;SDS011;6867;50.998;4.250;2022-07-29T14:34:42;6.28;;;3.15;;
13592;SDS011;6867;50.998;4.250;2022-07-29T14:37:11;4.72;;;2.63;;
13592;SDS011;6867;50.998;4.250;2022-07-29T14:39:39;4.55;;;2.50;;
13592;SDS011;6867;50.998;4.250;2022-07-29T14:42:11;3.42;;;2.70;;
13592;SDS011;6867;50.998;4.250;2022-07-29T14:44:40;5.43;;;2.35;;
13592;SDS011;6867;50.998;4.250;2022-07-29T14:47:07;4.32;;;2.42;;
13592;SDS011;6867;50.998;4.250;2022-07-29T14:49:34;2.60;;;2.40;;
13592;SDS011;6867;50.998;4.250;2022-07-29T14:52:02;4.40;;;2.25;;
13592;SDS011;6867;50.998;4.250;2022-07-29T14:54:30;3.53;;;2.58;;
13592;SDS011;6867;50.998;4.250;2022-07-29T14:56:57;4.10;;;2.70;;
13592;SDS011;6867;50.998;4.250;2022-07-29T14:59:23;4.45;;;2.70;;
13592;SDS011;6867;50.998;4.250;2022-07-29T15:01:50;4.10;;;2.22;;
13592;SDS011;6867;50.998;4.250;2022-07-29T15:04:17;3.67;;;2.40;;
13592;SDS011;6867;50.998;4.250;2022-07-29T15:06:44;4.70;;;2.60;;
13592;SDS011;6867;50.998;4.250;2022-07-29T15:09:12;3.05;;;2.35;;
13592;SDS011;6867;50.998;4.250;2022-07-29T15:11:39;4.80;;;2.80;;
13592;SDS011;6867;50.998;4.250;2022-07-29T15:14:05;3.15;;;2.10;;
13592;SDS011;6867;50.998;4.250;2022-07-29T15:16:32;3.08;;;2.78;;
13592;SDS011;6867;50.998;4.250;2022-07-29T15:19:01;3.17;;;2.88;;
13592;SDS011;6867;50.998;4.250;2022-07-29T15:21:28;5.35;;;2.55;;
13592;SDS011;6867;50.998;4.250;2022-07-29T15:23:54;4.00;;;2.40;;
13592;SDS011;6867;50.998;4.250;2022-07-29T15:26:22;4.32;;;2.55;;
13592;SDS011;6867;50.998;4.250;2022-07-29T15:28:49;6.30;;;3.42;;
13592;SDS011;6867;50.998;4.250;2022-07-29T15:31:16;3.85;;;3.00;;